createdAt,value
2023-05-16T00:02:06.287Z,96818.09
2023-05-16T00:04:33.376Z,96809.31
2023-05-16T00:07:00.166Z,96809.31
2023-05-16T00:09:26.882Z,96816.63
2023-05-16T00:11:53.708Z,96807.00
2023-05-16T00:14:21.016Z,96809.84
2023-05-16T00:16:48.295Z,96804.50
2023-05-16T00:19:15.613Z,96816.97
2023-05-16T00:21:42.997Z,96814.31
2023-05-16T00:24:09.838Z,96812.66
2023-05-16T00:26:36.605Z,96813.66
2023-05-16T00:29:03.433Z,96811.19
2023-05-16T00:31:30.226Z,96793.56
2023-05-16T00:33:57.017Z,96806.03
2023-05-16T00:36:24.041Z,96795.41
2023-05-16T00:38:50.989Z,96808.03
2023-05-16T00:41:17.946Z,96808.22
2023-05-16T00:43:45.253Z,96810.69
2023-05-16T00:46:12.314Z,96805.56
2023-05-16T00:48:39.406Z,96806.53
2023-05-16T00:51:09.557Z,96809.34
2023-05-16T00:53:37.372Z,96805.88
2023-05-16T00:56:06.437Z,96804.22
2023-05-16T00:58:34.184Z,96806.03
2023-05-16T01:01:03.998Z,96801.91
2023-05-16T01:03:31.876Z,96799.59
2023-05-16T01:05:59.220Z,96805.56
2023-05-16T01:08:26.009Z,96804.25
2023-05-16T01:11:21.105Z,96791.63
2023-05-16T01:14:03.292Z,96797.94
2023-05-16T01:16:49.088Z,96790.97
2023-05-16T01:19:40.091Z,96795.44
2023-05-16T01:22:21.814Z,96796.44
2023-05-16T01:25:08.110Z,96796.63
2023-05-16T01:27:36.020Z,96794.16
2023-05-16T01:30:15.100Z,96788.66
2023-05-16T01:32:42.027Z,96788.84
2023-05-16T01:35:12.194Z,96790.50
2023-05-16T01:37:49.381Z,96795.81
2023-05-16T01:40:45.236Z,96795.16
2023-05-16T01:43:16.890Z,96796.81
2023-05-16T01:45:51.424Z,96797.97
2023-05-16T01:48:23.103Z,96787.56
2023-05-16T01:50:57.771Z,96790.22
2023-05-16T01:53:33.763Z,96793.22
2023-05-16T01:56:02.027Z,96785.41
2023-05-16T01:58:32.440Z,96785.25
2023-05-16T02:01:04.155Z,96780.94
2023-05-16T02:03:31.665Z,96784.25
2023-05-16T02:05:58.835Z,96788.06
2023-05-16T02:08:26.697Z,96774.97
2023-05-16T02:10:53.660Z,96784.59
2023-05-16T02:13:20.396Z,96781.09
2023-05-16T02:15:47.081Z,96774.97
2023-05-16T02:18:13.909Z,96776.97
2023-05-16T02:20:40.911Z,96776.13
2023-05-16T02:23:07.660Z,96771.66
2023-05-16T02:25:34.412Z,96774.31
2023-05-16T02:28:01.158Z,96776.47
2023-05-16T02:30:27.904Z,96773.00
2023-05-16T02:32:54.727Z,96776.47
2023-05-16T02:35:22.130Z,96769.34
2023-05-16T02:37:48.812Z,96777.47
2023-05-16T02:40:15.786Z,96776.00
2023-05-16T02:42:42.545Z,96775.00
2023-05-16T02:45:09.619Z,96770.84
2023-05-16T02:47:36.392Z,96779.66
2023-05-16T02:50:03.957Z,96784.13
2023-05-16T02:52:30.816Z,96783.13
2023-05-16T02:55:15.940Z,96780.31
2023-05-16T02:57:44.298Z,96787.78
2023-05-16T03:00:11.918Z,96784.13
2023-05-16T03:02:38.942Z,96773.03
2023-05-16T03:05:06.602Z,96771.19
2023-05-16T03:07:33.390Z,96780.81
2023-05-16T03:10:00.309Z,96776.69
2023-05-16T03:12:27.161Z,96780.50
2023-05-16T03:14:53.910Z,96785.81
2023-05-16T03:17:20.966Z,96786.81
2023-05-16T03:19:47.849Z,96790.31
2023-05-16T03:22:14.915Z,96788.66
2023-05-16T03:24:41.716Z,96799.28
2023-05-16T03:27:08.598Z,96799.09
2023-05-16T03:29:35.531Z,96796.94
2023-05-16T03:32:02.383Z,96797.63
2023-05-16T03:34:29.375Z,96801.28
2023-05-16T03:36:56.151Z,96793.47
2023-05-16T03:39:22.889Z,96798.63
2023-05-16T03:41:49.624Z,96798.78
2023-05-16T03:44:16.393Z,96797.94
2023-05-16T03:46:43.133Z,96796.47
2023-05-16T03:49:10.027Z,96808.91
2023-05-16T03:51:36.830Z,96810.91
2023-05-16T03:54:03.672Z,96809.91
2023-05-16T03:56:30.491Z,96808.09
2023-05-16T03:58:57.424Z,96803.59
2023-05-16T04:01:24.163Z,96809.91
2023-05-16T04:03:51.258Z,96807.25
2023-05-16T04:06:18.201Z,96801.94
2023-05-16T04:08:45.209Z,96807.91
2023-05-16T04:11:12.337Z,96810.56
2023-05-16T04:13:39.241Z,96809.91
2023-05-16T04:16:06.540Z,96801.28
2023-05-16T04:18:33.513Z,96813.75
2023-05-16T04:21:00.339Z,96812.09
2023-05-16T04:23:27.383Z,96811.91
2023-05-16T04:25:55.415Z,96809.59
2023-05-16T04:28:22.492Z,96819.38
2023-05-16T04:30:49.548Z,96817.56
2023-05-16T04:33:16.891Z,96810.59
2023-05-16T04:35:43.713Z,96811.91
2023-05-16T04:38:10.759Z,96820.03
2023-05-16T04:40:37.933Z,96812.91
2023-05-16T04:43:05.039Z,96804.63
2023-05-16T04:45:31.809Z,96801.63
2023-05-16T04:47:58.703Z,96802.63
2023-05-16T04:50:28.212Z,96792.00
2023-05-16T04:52:56.410Z,96789.34
2023-05-16T04:55:42.378Z,96792.84
2023-05-16T04:58:27.589Z,96804.47
2023-05-16T05:00:55.924Z,96797.81
2023-05-16T05:03:22.702Z,96795.16
2023-05-16T05:05:49.557Z,96796.81
2023-05-16T05:08:16.850Z,96803.31
2023-05-16T05:11:02.091Z,96810.28
2023-05-16T05:13:29.042Z,96805.31
2023-05-16T05:15:55.858Z,96802.66
2023-05-16T05:18:22.810Z,96801.47
2023-05-16T05:20:50.694Z,96802.66
2023-05-16T05:23:17.563Z,96813.94
2023-05-16T05:25:44.805Z,96808.63
2023-05-16T05:28:11.630Z,96811.44
2023-05-16T05:30:39.218Z,96812.09
2023-05-16T05:33:07.015Z,96813.59
2023-05-16T05:35:33.904Z,96809.75
2023-05-16T05:38:00.712Z,96809.59
2023-05-16T05:40:27.469Z,96806.13
2023-05-16T05:42:54.208Z,96812.09
2023-05-16T05:45:20.995Z,96808.44
2023-05-16T05:47:47.865Z,96805.59
2023-05-16T05:50:15.824Z,96800.28
2023-05-16T05:52:42.708Z,96815.06
2023-05-16T05:55:09.685Z,96819.19
2023-05-16T05:57:36.348Z,96811.22
2023-05-16T06:00:03.228Z,96806.56
2023-05-16T06:02:30.058Z,96809.72
2023-05-16T06:04:57.138Z,96812.53
2023-05-16T06:07:23.936Z,96816.84
2023-05-16T06:09:50.677Z,96813.53
2023-05-16T06:12:17.751Z,96812.53
2023-05-16T06:14:44.508Z,96814.38
2023-05-16T06:17:11.676Z,96813.38
2023-05-16T06:19:38.416Z,96807.88
2023-05-16T06:22:05.339Z,96817.50
2023-05-16T06:24:32.092Z,96818.19
2023-05-16T06:26:59.260Z,96820.66
2023-05-16T06:29:26.206Z,96811.88
2023-05-16T06:31:53.014Z,96823.16
2023-05-16T06:34:20.854Z,96823.97
2023-05-16T06:36:47.832Z,96819.31
2023-05-16T06:39:14.595Z,96820.97
2023-05-16T06:41:41.576Z,96815.50
2023-05-16T06:44:08.876Z,96810.84
2023-05-16T06:46:35.668Z,96819.47
2023-05-16T06:49:02.472Z,96815.16
2023-05-16T06:51:31.295Z,96819.81
2023-05-16T06:53:58.186Z,96809.00
2023-05-16T06:56:25.027Z,96824.94
2023-05-16T06:58:51.869Z,96824.78
2023-05-16T07:01:18.684Z,96821.28
2023-05-16T07:03:45.593Z,96825.44
2023-05-16T07:06:12.503Z,96819.94
2023-05-16T07:08:39.311Z,96810.81
2023-05-16T07:11:06.331Z,96817.78
2023-05-16T07:13:35.731Z,96816.94
2023-05-16T07:16:02.910Z,96821.44
2023-05-16T07:18:29.960Z,96829.41
2023-05-16T07:20:56.906Z,96831.06
2023-05-16T07:23:23.711Z,96831.69
2023-05-16T07:25:50.665Z,96836.00
2023-05-16T07:28:17.447Z,96833.34
2023-05-16T07:30:44.745Z,96838.66
2023-05-16T07:33:11.716Z,96836.00
2023-05-16T07:35:39.326Z,96836.81
2023-05-16T07:38:06.501Z,96839.97
2023-05-16T07:40:33.251Z,96832.00
2023-05-16T07:43:00.001Z,96820.38
2023-05-16T07:45:27.114Z,96820.19
2023-05-16T07:47:54.107Z,96823.50
2023-05-16T07:50:21.167Z,96821.84
2023-05-16T07:52:48.077Z,96821.69
2023-05-16T07:55:15.210Z,96828.66
2023-05-16T07:57:42.196Z,96817.19
2023-05-16T08:00:09.766Z,96818.03
2023-05-16T08:02:36.709Z,96820.03
2023-05-16T08:05:03.894Z,96828.00
2023-05-16T08:07:31.666Z,96822.50
2023-05-16T08:09:58.425Z,96823.34
2023-05-16T08:12:25.475Z,96823.34
2023-05-16T08:14:52.241Z,96818.84
2023-05-16T08:17:19.310Z,96826.66
2023-05-16T08:19:46.535Z,96826.66
2023-05-16T08:22:13.321Z,96829.97
2023-05-16T08:24:40.090Z,96825.47
2023-05-16T08:27:06.921Z,96826.13
2023-05-16T08:29:33.712Z,96835.75
2023-05-16T08:32:01.704Z,96836.44
2023-05-16T08:34:31.875Z,96841.59
2023-05-16T08:36:58.711Z,96839.09
2023-05-16T08:39:26.460Z,96844.25
2023-05-16T08:41:53.495Z,96844.06
2023-05-16T08:47:14.209Z,96836.94
2023-05-16T08:49:44.476Z,96849.03
2023-05-16T08:52:12.229Z,96849.22
2023-05-16T08:54:41.340Z,96855.72
2023-05-16T08:57:09.878Z,96851.22
2023-05-16T08:59:37.398Z,96851.88
2023-05-16T09:02:05.727Z,96853.38
2023-05-16T09:04:32.783Z,96854.19
2023-05-16T09:06:59.810Z,96846.88
2023-05-16T09:09:26.593Z,96841.72
2023-05-16T09:11:53.491Z,96851.19
2023-05-16T09:14:20.287Z,96845.88
2023-05-16T09:17:04.535Z,96839.91
2023-05-16T09:19:38.996Z,96845.69
2023-05-16T09:22:09.229Z,96839.84
2023-05-16T09:24:40.502Z,96827.88
2023-05-16T09:27:15.669Z,96826.53
2023-05-16T09:29:43.801Z,96827.00
2023-05-16T09:32:13.402Z,96829.31
2023-05-16T09:34:45.622Z,96821.31
2023-05-16T09:37:12.849Z,96829.97
2023-05-16T09:39:47.729Z,96833.09
2023-05-16T09:42:15.423Z,96831.28
2023-05-16T09:44:46.947Z,96830.09
2023-05-16T09:47:21.751Z,96826.44
2023-05-16T09:49:53.035Z,96821.94
2023-05-16T09:52:20.252Z,96821.59
2023-05-16T09:54:50.754Z,96818.75
2023-05-16T09:57:27.276Z,96824.91
2023-05-16T09:59:54.089Z,96818.75
2023-05-16T10:02:21.150Z,96818.41
2023-05-16T10:04:47.920Z,96822.53
2023-05-16T10:07:16.315Z,96816.00
2023-05-16T10:09:44.349Z,96813.16
2023-05-16T10:12:14.981Z,96807.00
2023-05-16T10:14:43.818Z,96798.59
2023-05-16T10:17:13.713Z,96795.47
2023-05-16T10:19:42.153Z,96794.81
2023-05-16T10:22:12.128Z,96787.84
2023-05-16T10:24:51.495Z,96797.00
2023-05-16T10:27:19.419Z,96796.16
2023-05-16T10:29:54.394Z,96795.69
2023-05-16T10:32:24.498Z,96788.06
2023-05-16T10:34:51.404Z,96797.41
2023-05-16T10:37:18.266Z,96792.25
2023-05-16T10:39:46.590Z,96804.72
2023-05-16T10:42:18.488Z,96794.25
2023-05-16T10:44:54.685Z,96799.59
2023-05-16T10:47:27.084Z,96801.22
2023-05-16T10:49:53.863Z,96801.22
2023-05-16T10:52:20.637Z,96802.91
2023-05-16T10:54:52.360Z,96808.22
2023-05-16T10:57:23.138Z,96817.19
2023-05-16T10:59:52.744Z,96816.19
2023-05-16T11:02:29.097Z,96822.34
2023-05-16T11:04:59.971Z,96809.03
2023-05-16T11:07:32.552Z,96811.88
2023-05-16T11:10:11.476Z,96806.56
2023-05-16T11:12:52.109Z,96813.88
2023-05-16T11:15:20.383Z,96815.53
2023-05-16T11:17:47.961Z,96817.19
2023-05-16T11:20:31.925Z,96817.38
2023-05-16T11:23:28.135Z,96822.50
2023-05-16T11:25:56.923Z,96822.50
2023-05-16T11:28:27.720Z,96820.03
2023-05-16T11:30:57.898Z,96821.50
2023-05-16T11:33:25.819Z,96822.50
2023-05-16T11:36:15.368Z,96812.69
2023-05-16T11:38:44.254Z,96822.34
2023-05-16T11:41:11.814Z,96823.16
2023-05-16T11:43:43.804Z,96819.69
2023-05-16T11:46:17.173Z,96813.19
2023-05-16T11:48:45.656Z,96820.16
2023-05-16T11:51:14.939Z,96822.81
2023-05-16T11:53:41.803Z,96827.31
2023-05-16T11:56:09.227Z,96821.97
2023-05-16T11:58:37.198Z,96825.47
2023-05-16T12:01:05.696Z,96821.81
2023-05-16T12:03:36.116Z,96828.97
2023-05-16T12:06:03.316Z,96830.63
2023-05-16T12:08:30.931Z,96835.94
2023-05-16T12:10:57.848Z,96841.25
2023-05-16T12:13:25.695Z,96839.59
2023-05-16T12:15:53.071Z,96833.28
2023-05-16T12:18:21.589Z,96832.28
2023-05-16T12:20:48.778Z,96834.28
2023-05-16T12:23:16.626Z,96835.94
2023-05-16T12:25:47.835Z,96834.09
2023-05-16T12:28:16.120Z,96836.75
2023-05-16T12:30:44.993Z,96841.06
2023-05-16T12:33:13.779Z,96850.88
2023-05-16T12:35:43.055Z,96856.38
2023-05-16T12:38:15.206Z,96885.16
2023-05-16T12:40:44.399Z,96900.63
2023-05-16T12:43:13.857Z,96892.00
2023-05-16T12:45:41.385Z,96891.34
2023-05-16T12:48:14.535Z,96897.66
2023-05-16T12:50:42.078Z,96900.97
2023-05-16T12:53:14.186Z,96895.66
2023-05-16T12:55:41.827Z,96895.00
2023-05-16T12:58:10.212Z,96899.31
2023-05-16T13:00:37.921Z,96894.00
2023-05-16T13:03:06.414Z,96899.31
2023-05-16T13:05:33.718Z,96900.13
2023-05-16T13:08:00.501Z,96894.16
2023-05-16T13:10:27.931Z,96893.16
2023-05-16T13:12:58.599Z,96895.00
2023-05-16T13:15:26.147Z,96881.69
2023-05-16T13:17:53.198Z,96888.69
2023-05-16T13:20:21.485Z,96891.34
2023-05-16T13:22:48.418Z,96894.47
2023-05-16T13:25:15.360Z,96900.63
2023-05-16T13:27:42.283Z,96900.63
2023-05-16T13:30:09.580Z,96908.78
2023-05-16T13:32:36.548Z,96910.59
2023-05-16T13:35:04.341Z,96908.13
2023-05-16T13:37:31.562Z,96905.63
2023-05-16T13:39:58.479Z,96904.16
2023-05-16T13:42:25.249Z,96909.63
2023-05-16T13:44:52.323Z,96896.34
2023-05-16T13:47:19.130Z,96910.47
2023-05-16T13:49:46.170Z,96908.63
2023-05-16T13:52:13.247Z,96906.97
2023-05-16T13:54:41.649Z,96906.97
2023-05-16T13:57:08.836Z,96902.66
2023-05-16T13:59:59.211Z,96904.31
2023-05-16T14:02:22.597Z,96901.66
2023-05-16T14:04:51.624Z,96909.28
2023-05-16T14:07:19.139Z,96910.78
2023-05-16T14:09:46.041Z,96906.28
2023-05-16T14:12:12.859Z,96911.59
2023-05-16T14:14:40.324Z,96900.97
2023-05-16T14:17:07.813Z,96911.25
2023-05-16T14:19:34.874Z,96912.75
2023-05-16T14:22:01.844Z,96904.75
2023-05-16T14:24:28.640Z,96908.72
2023-05-16T14:26:55.762Z,96901.59
2023-05-16T14:29:22.975Z,96904.59
2023-05-16T14:31:50.004Z,96897.13
2023-05-16T14:34:16.901Z,96905.28
2023-05-16T14:36:44.004Z,96899.13
2023-05-16T14:39:10.940Z,96904.44
2023-05-16T14:41:37.733Z,96899.31
2023-05-16T14:44:04.800Z,96895.16
2023-05-16T14:46:31.742Z,96895.16
2023-05-16T14:48:58.578Z,96895.34
2023-05-16T14:51:25.396Z,96902.50
2023-05-16T14:53:52.231Z,96902.50
2023-05-16T14:56:19.038Z,96899.84
2023-05-16T14:58:45.867Z,96912.47
2023-05-16T15:01:12.873Z,96910.63
2023-05-16T15:06:09.622Z,96907.97
2023-05-16T15:08:37.404Z,96910.63
2023-05-16T15:11:04.376Z,96907.16
2023-05-16T15:13:31.281Z,96904.84
2023-05-16T15:15:58.498Z,96908.50
2023-05-16T15:18:25.297Z,96908.66
2023-05-16T15:20:53.377Z,96909.31
2023-05-16T15:23:20.306Z,96909.97
2023-05-16T15:25:47.136Z,96909.16
2023-05-16T15:28:13.989Z,96906.50
2023-05-16T15:30:41.212Z,96917.78
2023-05-16T15:33:08.058Z,96916.78
2023-05-16T15:35:34.963Z,96918.59
2023-05-16T15:38:01.737Z,96918.78
2023-05-16T15:40:28.610Z,96917.13
2023-05-16T15:42:55.599Z,96927.75
2023-05-16T15:45:22.390Z,96921.78
2023-05-16T15:47:49.385Z,96926.28
2023-05-16T15:50:16.404Z,96921.78
2023-05-16T15:52:43.341Z,96924.44
2023-05-16T15:55:12.151Z,96927.09
2023-05-16T15:57:39.000Z,96920.13
2023-05-16T16:00:06.497Z,96925.28
2023-05-16T16:02:33.345Z,96926.28
2023-05-16T16:05:00.143Z,96926.94
2023-05-16T16:07:26.918Z,96924.94
2023-05-16T16:09:53.675Z,96920.44
2023-05-16T16:12:21.460Z,96928.25
2023-05-16T16:14:49.717Z,96939.88
2023-05-16T16:17:16.721Z,96932.91
2023-05-16T16:19:43.518Z,96946.19
2023-05-16T16:22:10.487Z,96944.53
2023-05-16T16:24:37.261Z,96938.41
2023-05-16T16:27:04.302Z,96951.34
2023-05-16T16:29:31.182Z,96947.50
2023-05-16T16:31:58.248Z,96958.16
2023-05-16T16:34:25.305Z,96959.63
2023-05-16T16:36:52.063Z,96971.75
2023-05-16T16:39:19.540Z,96970.94
2023-05-16T16:41:46.530Z,96973.59
2023-05-16T16:44:13.803Z,96984.41
2023-05-16T16:46:40.715Z,96993.03
2023-05-16T16:49:07.636Z,96996.84
2023-05-16T16:51:35.295Z,96998.03
2023-05-16T16:54:02.241Z,97000.03
2023-05-16T16:56:30.284Z,97004.69
2023-05-16T16:58:57.798Z,97009.50
2023-05-16T17:01:29.670Z,97016.66
2023-05-16T17:03:56.783Z,97021.97
2023-05-16T17:06:23.594Z,97026.47
2023-05-16T17:08:50.399Z,97038.91
2023-05-16T17:11:22.939Z,97030.94
2023-05-16T17:13:50.291Z,97046.06
2023-05-16T17:16:17.143Z,97054.88
2023-05-16T17:18:43.952Z,97060.19
2023-05-16T17:21:13.263Z,97064.69
2023-05-16T17:23:43.233Z,97063.19
2023-05-16T17:26:13.685Z,97071.16
2023-05-16T17:28:40.532Z,97073.97
2023-05-16T17:31:07.556Z,97077.47
2023-05-16T17:33:34.329Z,97083.13
2023-05-16T17:36:01.860Z,97084.78
2023-05-16T17:38:28.620Z,97087.78
2023-05-16T17:40:55.697Z,97085.94
2023-05-16T17:43:23.007Z,97078.97
2023-05-16T17:45:49.756Z,97083.63
2023-05-16T17:48:16.746Z,97087.28
2023-05-16T17:50:43.783Z,97089.25
2023-05-16T17:53:11.241Z,97083.09
2023-05-16T17:55:38.626Z,97081.44
2023-05-16T17:58:06.941Z,97085.09
2023-05-16T18:00:33.929Z,97091.41
2023-05-16T18:03:00.872Z,97080.59
2023-05-16T18:05:28.850Z,97088.75
2023-05-16T18:07:55.766Z,97090.75
2023-05-16T18:10:22.580Z,97089.06
2023-05-16T18:12:49.528Z,97095.38
2023-05-16T18:15:17.027Z,97102.03
2023-05-16T18:17:43.960Z,97103.84
2023-05-16T18:20:11.881Z,97115.31
2023-05-16T18:22:39.483Z,97115.47
2023-05-16T18:25:07.725Z,97118.13
2023-05-16T18:27:34.625Z,97122.78
2023-05-16T18:30:02.131Z,97125.59
2023-05-16T18:32:29.358Z,97119.66
2023-05-16T18:34:56.441Z,97126.59
2023-05-16T18:37:23.468Z,97130.28
2023-05-16T18:39:50.591Z,97133.28
2023-05-16T18:42:17.739Z,97142.25
2023-05-16T18:44:45.684Z,97140.41
2023-05-16T18:47:12.865Z,97142.41
2023-05-16T18:49:39.693Z,97141.41
2023-05-16T18:52:10.105Z,97154.84
2023-05-16T18:54:38.494Z,97147.72
2023-05-16T18:57:08.559Z,97151.53
2023-05-16T18:59:35.451Z,97159.50
2023-05-16T19:02:02.400Z,97159.34
2023-05-16T19:04:29.438Z,97156.84
2023-05-16T19:06:58.180Z,97168.47
2023-05-16T19:09:25.596Z,97167.47
2023-05-16T19:11:52.642Z,97177.44
2023-05-16T19:14:19.500Z,97177.59
2023-05-16T19:16:46.396Z,97173.28
2023-05-16T19:19:13.334Z,97183.91
2023-05-16T19:21:40.334Z,97188.38
2023-05-16T19:24:07.826Z,97188.38
2023-05-16T19:26:34.576Z,97200.00
2023-05-16T19:29:01.346Z,97206.31
2023-05-16T19:31:28.123Z,97204.66
2023-05-16T19:33:54.986Z,97212.44
2023-05-16T19:36:21.761Z,97214.28
2023-05-16T19:38:48.621Z,97210.94
2023-05-16T19:41:15.565Z,97218.09
2023-05-16T19:43:42.537Z,97212.09
2023-05-16T19:46:09.365Z,97213.94
2023-05-16T19:48:36.251Z,97214.91
2023-05-16T19:51:03.247Z,97226.53
2023-05-16T19:53:30.113Z,97228.19
2023-05-16T19:55:57.055Z,97224.72
2023-05-16T19:58:23.918Z,97226.69
2023-05-16T20:00:51.116Z,97230.19
2023-05-16T20:03:17.950Z,97226.84
2023-05-16T20:05:44.914Z,97224.19
2023-05-16T20:08:12.391Z,97223.38
2023-05-16T20:10:39.959Z,97224.38
2023-05-16T20:13:06.943Z,97232.34
2023-05-16T20:15:33.787Z,97234.31
2023-05-16T20:18:03.637Z,97244.94
2023-05-16T20:20:33.823Z,97239.63
2023-05-16T20:23:00.714Z,97252.91
2023-05-16T20:25:27.972Z,97249.41
2023-05-16T20:27:54.939Z,97253.06
2023-05-16T20:30:21.755Z,97253.06
2023-05-16T20:32:48.608Z,97250.56
2023-05-16T20:35:15.599Z,97242.75
2023-05-16T20:37:42.607Z,97240.94
2023-05-16T20:40:09.894Z,97248.06
2023-05-16T20:42:36.844Z,97247.25
2023-05-16T20:45:04.709Z,97249.22
2023-05-16T20:47:31.746Z,97244.75
2023-05-16T20:49:58.531Z,97244.75
2023-05-16T20:52:25.483Z,97254.53
2023-05-16T20:54:52.173Z,97251.88
2023-05-16T20:57:18.915Z,97247.41
2023-05-16T20:59:45.704Z,97256.34
2023-05-16T21:02:12.524Z,97260.16
2023-05-16T21:04:39.620Z,97257.66
2023-05-16T21:07:08.462Z,97263.81
2023-05-16T21:09:37.153Z,97274.59
2023-05-16T21:12:04.564Z,97282.41
2023-05-16T21:14:31.321Z,97266.63
2023-05-16T21:16:58.128Z,97271.25
2023-05-16T21:19:24.989Z,97280.88
2023-05-16T21:21:51.828Z,97280.22
2023-05-16T21:24:19.567Z,97278.56
2023-05-16T21:26:46.312Z,97289.16
2023-05-16T21:29:13.070Z,97287.66
2023-05-16T21:31:40.504Z,97286.69
2023-05-16T21:34:08.607Z,97287.66
2023-05-16T21:36:36.048Z,97288.50
2023-05-16T21:39:03.026Z,97294.78
2023-05-16T21:41:29.840Z,97304.75
2023-05-16T21:43:56.641Z,97300.09
2023-05-16T21:46:23.436Z,97305.88
2023-05-16T21:48:50.321Z,97306.56
2023-05-16T21:51:18.346Z,97311.03
2023-05-16T21:53:46.749Z,97314.69
2023-05-16T21:56:14.201Z,97320.97
2023-05-16T21:58:42.617Z,97309.53
2023-05-16T22:01:09.726Z,97311.34
2023-05-16T22:03:36.630Z,97318.47
2023-05-16T22:06:03.561Z,97328.28
2023-05-16T22:08:30.446Z,97332.59
2023-05-16T22:10:57.313Z,97331.91
2023-05-16T22:13:24.106Z,97330.25
2023-05-16T22:16:03.444Z,97330.25
2023-05-16T22:18:31.548Z,97330.25
2023-05-16T22:20:58.442Z,97331.25
2023-05-16T22:23:25.563Z,97335.72
2023-05-16T22:25:52.736Z,97334.72
2023-05-16T22:28:19.537Z,97341.19
2023-05-16T22:30:46.264Z,97348.31
2023-05-16T22:33:13.128Z,97355.44
2023-05-16T22:35:39.977Z,97347.63
2023-05-16T22:38:06.721Z,97350.13
2023-05-16T22:40:33.474Z,97350.13
2023-05-16T22:43:00.199Z,97344.00
2023-05-16T22:45:27.151Z,97349.44
2023-05-16T22:47:54.172Z,97347.78
2023-05-16T22:50:21.116Z,97350.44
2023-05-16T22:52:47.883Z,97353.41
2023-05-16T22:55:14.691Z,97359.53
2023-05-16T22:57:41.547Z,97358.72
2023-05-16T23:00:09.285Z,97357.88
2023-05-16T23:02:36.279Z,97361.66
2023-05-16T23:05:03.489Z,97365.16
2023-05-16T23:07:31.009Z,97359.00
2023-05-16T23:09:57.767Z,97356.34
2023-05-16T23:12:25.510Z,97359.97
2023-05-16T23:14:52.359Z,97360.97
2023-05-16T23:17:19.150Z,97363.97
2023-05-16T23:19:46.122Z,97376.06
2023-05-16T23:22:12.967Z,97371.75
2023-05-16T23:24:39.696Z,97377.91
2023-05-16T23:27:06.472Z,97381.53
2023-05-16T23:29:33.220Z,97379.19
2023-05-16T23:32:00.117Z,97380.19
2023-05-16T23:34:26.875Z,97388.16
2023-05-16T23:36:53.817Z,97384.66
2023-05-16T23:39:21.665Z,97389.13
2023-05-16T23:41:48.542Z,97384.81
2023-05-16T23:44:34.485Z,97383.16
2023-05-16T23:47:19.424Z,97390.44
2023-05-16T23:49:46.303Z,97375.19
2023-05-16T23:52:13.754Z,97385.28
2023-05-16T23:54:40.748Z,97391.41
2023-05-16T23:57:07.489Z,97388.59
2023-05-16T23:59:34.280Z,97390.44
